createdAt,value
2018-11-23T00:00:15.828Z,1.29
2018-11-23T00:02:45.071Z,1.20
2018-11-23T00:05:13.320Z,1.34
2018-11-23T00:07:43.232Z,1.28
2018-11-23T00:10:13.085Z,1.14
2018-11-23T00:12:41.267Z,1.30
2018-11-23T00:15:13.554Z,1.24
2018-11-23T00:17:41.823Z,1.36
2018-11-23T00:20:12.377Z,1.16
2018-11-23T00:22:40.756Z,1.38
2018-11-23T00:27:45.028Z,1.33
2018-11-23T00:30:15.337Z,1.39
2018-11-23T00:32:43.827Z,1.46
2018-11-23T00:35:14.718Z,1.39
2018-11-23T00:37:43.065Z,1.09
2018-11-23T00:40:13.364Z,1.25
2018-11-23T00:42:42.054Z,1.36
2018-11-23T00:45:12.015Z,1.31
2018-11-23T00:47:40.681Z,1.34
2018-11-23T00:50:11.106Z,1.25
2018-11-23T00:52:39.816Z,1.28
2018-11-23T00:55:10.409Z,1.33
2018-11-23T00:57:39.166Z,1.22
2018-11-23T01:00:14.377Z,1.22
2018-11-23T01:02:42.740Z,1.29
2018-11-23T01:05:12.273Z,1.47
2018-11-23T01:07:41.094Z,1.38
2018-11-23T01:10:10.887Z,1.26
2018-11-23T01:12:39.869Z,1.25
2018-11-23T01:15:08.744Z,1.32
2018-11-23T01:17:37.335Z,1.28
2018-11-23T01:20:08.843Z,1.35
2018-11-23T01:22:37.258Z,1.10
2018-11-23T01:25:07.429Z,1.26
2018-11-23T01:27:35.586Z,1.03
2018-11-23T01:30:04.056Z,1.29
2018-11-23T01:32:32.377Z,1.08
2018-11-23T01:35:00.852Z,1.23
2018-11-23T01:37:29.030Z,1.17
2018-11-23T01:39:57.207Z,1.11
2018-11-23T01:42:25.375Z,1.10
2018-11-23T01:44:53.811Z,0.88
2018-11-23T01:47:22.682Z,1.38
2018-11-23T01:49:51.102Z,1.16
2018-11-23T01:52:19.376Z,1.11
2018-11-23T01:54:47.616Z,1.12
2018-11-23T01:57:16.897Z,1.23
2018-11-23T01:59:45.082Z,1.22
2018-11-23T02:02:13.351Z,1.01
2018-11-23T02:04:41.672Z,1.00
2018-11-23T02:07:09.831Z,1.11
2018-11-23T02:09:38.018Z,1.09
2018-11-23T02:12:06.174Z,1.26
2018-11-23T02:14:34.454Z,1.07
2018-11-23T02:17:02.616Z,1.15
2018-11-23T02:19:30.783Z,1.17
2018-11-23T02:21:59.772Z,1.10
2018-11-23T02:24:27.926Z,1.32
2018-11-23T02:26:56.132Z,1.29
2018-11-23T02:29:24.474Z,1.17
2018-11-23T02:31:52.637Z,1.13
2018-11-23T02:34:20.853Z,1.16
2018-11-23T02:36:49.325Z,1.10
2018-11-23T02:39:17.652Z,1.04
2018-11-23T02:41:45.822Z,1.04
2018-11-23T02:44:14.799Z,1.05
2018-11-23T02:46:42.989Z,1.16
2018-11-23T02:49:11.187Z,1.19
2018-11-23T02:51:39.557Z,1.27
2018-11-23T02:54:07.780Z,1.30
2018-11-23T02:56:44.618Z,1.06
2018-11-23T02:59:12.971Z,1.20
2018-11-23T03:01:41.473Z,1.06
2018-11-23T03:04:10.962Z,1.05
2018-11-23T03:06:39.116Z,1.18
2018-11-23T03:09:09.472Z,1.25
2018-11-23T03:11:40.430Z,1.09
2018-11-23T03:14:09.602Z,1.21
2018-11-23T03:16:38.147Z,1.21
2018-11-23T03:19:06.637Z,1.21
2018-11-23T03:21:35.726Z,1.06
2018-11-23T03:24:04.158Z,1.04
2018-11-23T03:26:32.331Z,1.21
2018-11-23T03:29:00.523Z,1.00
2018-11-23T03:31:28.687Z,1.12
2018-11-23T03:33:57.865Z,1.31
2018-11-23T03:36:26.038Z,1.36
2018-11-23T03:38:55.181Z,1.20
2018-11-23T03:41:23.365Z,1.17
2018-11-23T03:43:51.558Z,1.06
2018-11-23T03:46:19.832Z,1.01
2018-11-23T03:48:48.028Z,1.07
2018-11-23T03:51:16.225Z,1.05
2018-11-23T03:53:44.593Z,0.92
2018-11-23T03:56:12.775Z,1.08
2018-11-23T03:58:40.938Z,0.93
2018-11-23T04:01:09.103Z,1.06
2018-11-23T04:03:37.257Z,1.08
2018-11-23T04:06:05.674Z,1.16
2018-11-23T04:08:33.968Z,1.25
2018-11-23T04:11:02.177Z,1.19
2018-11-23T04:13:31.115Z,0.99
2018-11-23T04:15:59.469Z,0.88
2018-11-23T04:18:28.208Z,0.83
2018-11-23T04:21:01.512Z,0.93
2018-11-23T04:23:30.760Z,1.13
2018-11-23T04:25:59.284Z,0.60
2018-11-23T04:28:27.518Z,0.93
2018-11-23T04:30:55.866Z,0.98
2018-11-23T04:33:24.347Z,1.00
2018-11-23T04:35:52.501Z,0.85
2018-11-23T04:38:21.042Z,0.98
2018-11-23T04:40:49.224Z,0.91
2018-11-23T04:43:17.413Z,0.82
2018-11-23T04:45:45.607Z,0.84
2018-11-23T04:48:13.815Z,1.01
2018-11-23T04:50:42.080Z,1.02
2018-11-23T04:53:10.248Z,1.05
2018-11-23T04:55:38.458Z,0.86
2018-11-23T04:58:06.652Z,0.91
2018-11-23T05:00:35.118Z,1.08
2018-11-23T05:03:03.296Z,0.81
2018-11-23T05:05:32.600Z,1.00
2018-11-23T05:08:00.766Z,1.01
2018-11-23T05:10:28.929Z,1.08
2018-11-23T05:12:57.572Z,1.02
2018-11-23T05:15:27.068Z,1.12
2018-11-23T05:17:55.255Z,1.16
2018-11-23T05:20:23.783Z,1.15
2018-11-23T05:22:52.070Z,1.02
2018-11-23T05:25:20.802Z,1.08
2018-11-23T05:30:45.808Z,0.89
2018-11-23T05:33:15.248Z,1.02
2018-11-23T05:35:43.891Z,0.99
2018-11-23T05:38:12.058Z,1.05
2018-11-23T05:40:40.466Z,1.06
2018-11-23T05:43:08.618Z,0.94
2018-11-23T05:45:36.805Z,0.96
2018-11-23T05:48:05.105Z,1.09
2018-11-23T05:50:33.325Z,0.89
2018-11-23T05:53:01.723Z,0.96
2018-11-23T05:55:30.091Z,0.93
2018-11-23T05:57:58.252Z,1.03
2018-11-23T06:00:28.791Z,1.10
2018-11-23T06:02:56.982Z,1.17
2018-11-23T06:05:25.174Z,1.23
2018-11-23T06:07:53.344Z,1.16
2018-11-23T06:10:22.027Z,1.10
2018-11-23T06:12:50.295Z,1.04
2018-11-23T06:15:19.812Z,0.91
2018-11-23T06:17:48.318Z,1.13
2018-11-23T06:20:18.404Z,1.04
2018-11-23T06:22:47.556Z,1.19
2018-11-23T06:25:25.263Z,1.07
2018-11-23T06:27:53.502Z,0.99
2018-11-23T06:30:21.698Z,1.05
2018-11-23T06:33:01.325Z,1.12
2018-11-23T06:35:29.733Z,1.02
2018-11-23T06:37:58.294Z,1.10
2018-11-23T06:40:27.766Z,1.14
2018-11-23T06:45:54.550Z,1.09
2018-11-23T06:48:23.100Z,1.08
2018-11-23T06:50:51.493Z,1.16
2018-11-23T06:53:19.841Z,1.07
2018-11-23T06:55:48.665Z,1.13
2018-11-23T06:58:18.042Z,1.18
2018-11-23T07:00:46.230Z,1.03
2018-11-23T07:03:14.405Z,0.92
2018-11-23T07:05:42.964Z,0.93
2018-11-23T07:08:19.729Z,1.06
2018-11-23T07:10:48.067Z,0.94
2018-11-23T07:13:17.064Z,0.96
2018-11-23T07:15:45.740Z,0.99
2018-11-23T07:18:14.013Z,0.78
2018-11-23T07:20:42.460Z,0.97
2018-11-23T07:23:10.671Z,0.86
2018-11-23T07:25:42.535Z,0.88
2018-11-23T07:28:35.629Z,1.01
2018-11-23T07:31:11.210Z,0.94
2018-11-23T07:34:09.801Z,1.01
2018-11-23T07:36:45.477Z,0.94
2018-11-23T07:39:24.937Z,0.96
2018-11-23T07:42:06.250Z,1.01
2018-11-23T07:46:42.665Z,1.07
2018-11-23T07:49:11.079Z,0.95
2018-11-23T07:51:39.434Z,1.04
2018-11-23T07:54:07.609Z,1.08
2018-11-23T07:56:36.134Z,0.95
2018-11-23T07:59:04.332Z,0.98
2018-11-23T08:01:32.496Z,0.86
2018-11-23T08:04:00.673Z,1.08
2018-11-23T08:06:28.820Z,1.13
2018-11-23T08:08:57.127Z,1.15
2018-11-23T08:11:25.331Z,1.15
2018-11-23T08:13:53.600Z,1.08
2018-11-23T08:16:21.801Z,1.09
2018-11-23T08:18:50.669Z,1.07
2018-11-23T08:21:18.829Z,1.11
2018-11-23T08:23:47.150Z,1.17
2018-11-23T08:26:15.453Z,1.04
2018-11-23T08:28:43.657Z,1.19
2018-11-23T08:31:11.856Z,1.02
2018-11-23T08:33:40.123Z,0.99
2018-11-23T08:36:08.367Z,1.08
2018-11-23T08:38:36.548Z,1.11
2018-11-23T08:41:05.536Z,1.13
2018-11-23T08:43:32.900Z,1.25
2018-11-23T08:46:01.273Z,1.20
2018-11-23T08:48:30.262Z,1.16
2018-11-23T08:50:58.458Z,1.06
2018-11-23T08:53:33.697Z,0.97
2018-11-23T08:56:01.863Z,1.02
2018-11-23T08:58:30.301Z,1.04
2018-11-23T09:00:58.551Z,0.93
2018-11-23T09:03:27.439Z,1.06
2018-11-23T09:05:55.715Z,1.10
2018-11-23T09:08:24.002Z,1.13
2018-11-23T09:10:52.188Z,1.13
2018-11-23T09:13:20.418Z,1.18
2018-11-23T09:15:48.726Z,1.01
2018-11-23T09:18:16.906Z,1.22
2018-11-23T09:20:45.076Z,1.04
2018-11-23T09:23:13.300Z,1.13
2018-11-23T09:25:41.464Z,1.34
2018-11-23T09:28:10.017Z,1.07
2018-11-23T09:30:38.244Z,1.24
2018-11-23T09:33:06.906Z,1.26
2018-11-23T09:35:35.172Z,1.03
2018-11-23T09:38:04.493Z,1.10
2018-11-23T09:40:32.664Z,1.10
2018-11-23T09:43:00.885Z,1.13
2018-11-23T09:45:31.601Z,1.08
2018-11-23T09:48:01.224Z,1.19
2018-11-23T09:50:30.455Z,1.13
2018-11-23T09:52:59.854Z,1.30
2018-11-23T09:55:29.092Z,1.24
2018-11-23T09:57:57.277Z,1.20
2018-11-23T10:00:26.877Z,1.25
2018-11-23T10:02:56.608Z,1.13
2018-11-23T10:05:25.474Z,1.22
2018-11-23T10:07:55.242Z,1.24
2018-11-23T10:10:24.088Z,1.19
2018-11-23T10:12:52.279Z,1.13
2018-11-23T10:15:21.159Z,1.19
2018-11-23T10:17:49.318Z,1.44
2018-11-23T10:20:18.809Z,1.38
2018-11-23T10:22:47.296Z,1.42
2018-11-23T10:25:17.128Z,1.27
2018-11-23T10:27:45.595Z,1.29
2018-11-23T10:30:16.160Z,1.42
2018-11-23T10:32:45.260Z,1.30
2018-11-23T10:35:13.439Z,1.33
2018-11-23T10:37:42.365Z,1.34
2018-11-23T10:40:12.993Z,1.32
2018-11-23T10:42:41.507Z,1.42
2018-11-23T10:45:20.277Z,1.35
2018-11-23T10:47:48.991Z,1.29
2018-11-23T10:50:19.778Z,1.33
2018-11-23T10:52:48.099Z,1.38
2018-11-23T10:55:18.451Z,1.40
2018-11-23T10:57:46.676Z,1.52
2018-11-23T11:00:23.586Z,1.49
2018-11-23T11:02:58.218Z,1.57
2018-11-23T11:06:04.475Z,1.49
2018-11-23T11:08:32.667Z,1.42
2018-11-23T11:11:00.863Z,1.56
2018-11-23T11:13:29.034Z,1.65
2018-11-23T11:15:57.595Z,1.64
2018-11-23T11:18:25.784Z,1.54
2018-11-23T11:20:53.946Z,1.40
2018-11-23T11:23:22.222Z,1.39
2018-11-23T11:25:50.539Z,1.48
2018-11-23T11:28:18.720Z,1.46
2018-11-23T11:30:46.904Z,1.46
2018-11-23T11:33:15.200Z,1.45
2018-11-23T11:35:43.417Z,1.66
2018-11-23T11:38:11.619Z,1.61
2018-11-23T11:40:39.942Z,1.62
2018-11-23T11:43:08.160Z,1.60
2018-11-23T11:45:36.333Z,1.62
2018-11-23T11:48:04.604Z,1.50
2018-11-23T11:50:32.815Z,1.60
2018-11-23T11:53:01.020Z,1.66
2018-11-23T11:55:29.201Z,1.78
2018-11-23T11:57:57.391Z,1.53
2018-11-23T12:00:26.466Z,1.77
2018-11-23T12:02:55.050Z,1.46
2018-11-23T12:05:23.284Z,1.77
2018-11-23T12:07:51.507Z,1.71
2018-11-23T12:10:22.596Z,1.95
2018-11-23T12:12:51.126Z,1.81
2018-11-23T12:15:19.318Z,1.76
2018-11-23T12:17:47.496Z,1.67
2018-11-23T12:20:19.102Z,1.87
2018-11-23T12:22:47.767Z,1.67
2018-11-23T12:25:16.054Z,1.81
2018-11-23T12:27:44.221Z,1.72
2018-11-23T12:30:15.458Z,1.80
2018-11-23T12:32:44.739Z,1.71
2018-11-23T12:35:13.890Z,1.87
2018-11-23T12:37:42.207Z,1.72
2018-11-23T12:40:12.096Z,1.68
2018-11-23T12:42:40.440Z,1.89
2018-11-23T12:45:10.822Z,1.96
2018-11-23T12:47:39.161Z,2.01
2018-11-23T12:50:09.655Z,1.96
2018-11-23T12:52:37.853Z,1.96
2018-11-23T12:55:18.280Z,1.98
2018-11-23T12:57:47.767Z,1.85
2018-11-23T13:00:24.048Z,1.80
2018-11-23T13:02:54.349Z,1.90
2018-11-23T13:05:23.676Z,1.95
2018-11-23T13:07:52.785Z,2.15
2018-11-23T13:10:23.698Z,1.93
2018-11-23T13:12:52.603Z,1.97
2018-11-23T13:16:24.241Z,2.03
2018-11-23T13:18:53.427Z,1.99
2018-11-23T13:21:22.581Z,2.06
2018-11-23T13:23:51.135Z,2.14
2018-11-23T13:26:19.543Z,1.94
2018-11-23T13:28:54.843Z,1.88
2018-11-23T13:31:23.932Z,1.97
2018-11-23T13:33:53.907Z,2.01
2018-11-23T13:36:22.235Z,2.03
2018-11-23T13:38:50.442Z,2.01
2018-11-23T13:41:19.671Z,2.15
2018-11-23T13:43:47.965Z,2.05
2018-11-23T13:46:17.395Z,2.17
2018-11-23T13:48:45.664Z,2.15
2018-11-23T13:51:15.255Z,2.06
2018-11-23T13:53:43.736Z,2.07
2018-11-23T13:56:12.105Z,2.29
2018-11-23T13:58:40.713Z,2.36
2018-11-23T14:01:08.965Z,2.18
2018-11-23T14:03:37.459Z,2.16
2018-11-23T14:06:06.345Z,2.25
2018-11-23T14:08:34.948Z,1.80
2018-11-23T14:11:14.179Z,2.07
2018-11-23T14:13:43.078Z,2.49
2018-11-23T14:16:11.263Z,2.20
2018-11-23T14:18:39.543Z,2.24
2018-11-23T14:21:07.808Z,2.19
2018-11-23T14:23:36.000Z,2.40
2018-11-23T14:26:05.140Z,2.46
2018-11-23T14:28:34.382Z,2.37
2018-11-23T14:31:02.596Z,2.37
2018-11-23T14:33:30.998Z,2.20
2018-11-23T14:35:59.386Z,2.16
2018-11-23T14:38:27.630Z,2.20
2018-11-23T14:40:56.068Z,2.25
2018-11-23T14:43:24.354Z,2.30
2018-11-23T14:45:52.772Z,2.18
2018-11-23T14:48:22.142Z,2.26
2018-11-23T14:50:51.904Z,2.20
2018-11-23T14:53:39.434Z,2.20
2018-11-23T14:56:16.400Z,2.19
2018-11-23T14:58:44.769Z,2.15
2018-11-23T15:01:13.102Z,2.12
2018-11-23T15:03:45.210Z,2.14
2018-11-23T15:06:14.165Z,2.10
2018-11-23T15:08:42.664Z,2.06
2018-11-23T15:11:10.858Z,2.11
2018-11-23T15:13:39.067Z,2.05
2018-11-23T15:16:07.474Z,2.14
2018-11-23T15:18:35.868Z,2.11
2018-11-23T15:21:04.112Z,2.19
2018-11-23T15:23:32.332Z,2.16
2018-11-23T15:26:00.525Z,2.24
2018-11-23T15:28:28.763Z,2.25
2018-11-23T15:30:56.953Z,2.16
2018-11-23T15:33:25.236Z,2.23
2018-11-23T15:35:53.406Z,2.14
2018-11-23T15:38:23.215Z,2.22
2018-11-23T15:40:51.366Z,2.18
2018-11-23T15:43:20.414Z,2.09
2018-11-23T15:47:13.194Z,2.28
2018-11-23T15:49:41.985Z,2.16
2018-11-23T15:52:10.212Z,2.16
2018-11-23T15:54:40.559Z,2.17
2018-11-23T15:57:09.517Z,2.12
2018-11-23T15:59:38.829Z,2.07
2018-11-23T16:02:25.981Z,2.11
2018-11-23T16:04:54.880Z,2.20
2018-11-23T16:07:23.224Z,2.18
2018-11-23T16:09:51.399Z,2.14
2018-11-23T16:12:19.587Z,2.21
2018-11-23T16:14:47.777Z,2.25
2018-11-23T16:17:16.154Z,2.18
2018-11-23T16:19:44.501Z,2.23
2018-11-23T16:22:12.873Z,2.11
2018-11-23T16:24:44.791Z,2.05
2018-11-23T16:27:13.185Z,2.08
2018-11-23T16:29:41.433Z,2.24
2018-11-23T16:32:09.795Z,2.13
2018-11-23T16:34:38.288Z,1.97
2018-11-23T16:37:07.606Z,2.13
2018-11-23T16:39:36.014Z,2.19
2018-11-23T16:42:04.768Z,2.23
2018-11-23T16:44:33.303Z,2.08
2018-11-23T16:47:01.623Z,2.04
2018-11-23T16:49:30.020Z,2.00
2018-11-23T16:51:58.296Z,1.73
2018-11-23T16:54:26.514Z,2.14
2018-11-23T16:56:55.015Z,2.13
2018-11-23T16:59:26.409Z,2.03
2018-11-23T17:01:54.767Z,1.96
2018-11-23T17:04:38.094Z,1.90
2018-11-23T17:07:12.651Z,1.94
2018-11-23T17:09:45.035Z,2.01
2018-11-23T17:12:13.613Z,2.00
2018-11-23T17:14:42.884Z,2.03
2018-11-23T17:17:11.897Z,2.11
2018-11-23T17:19:40.515Z,1.96
2018-11-23T17:22:08.876Z,1.87
2018-11-23T17:24:38.696Z,1.92
2018-11-23T17:27:08.267Z,1.85
2018-11-23T17:29:36.734Z,2.01
2018-11-23T17:32:05.187Z,1.81
2018-11-23T17:34:36.409Z,1.91
2018-11-23T17:37:07.568Z,1.91
2018-11-23T17:39:36.248Z,1.90
2018-11-23T17:42:04.854Z,1.94
2018-11-23T17:44:34.604Z,1.90
2018-11-23T17:47:02.984Z,1.94
2018-11-23T17:49:31.640Z,1.87
2018-11-23T17:52:00.449Z,1.90
2018-11-23T17:54:29.116Z,2.05
2018-11-23T17:56:57.460Z,2.05
2018-11-23T17:59:25.709Z,2.09
2018-11-23T18:04:52.083Z,2.05
2018-11-23T18:07:20.389Z,2.13
2018-11-23T18:09:51.150Z,2.12
2018-11-23T18:12:23.618Z,2.21
2018-11-23T18:14:52.227Z,2.10
2018-11-23T18:17:20.753Z,2.10
2018-11-23T18:19:49.094Z,2.09
2018-11-23T18:22:17.497Z,2.03
2018-11-23T18:24:45.881Z,1.97
2018-11-23T18:27:21.274Z,2.06
2018-11-23T18:29:52.057Z,2.00
2018-11-23T18:56:32.898Z,2.21
2018-11-23T18:59:01.222Z,2.32
2018-11-23T19:01:30.109Z,2.26
2018-11-23T19:03:58.594Z,2.15
2018-11-23T19:06:27.257Z,2.23
2018-11-23T19:08:56.605Z,2.25
2018-11-23T19:11:25.145Z,2.19
2018-11-23T19:13:53.735Z,2.19
2018-11-23T19:16:24.812Z,1.87
2018-11-23T19:18:56.578Z,2.20
2018-11-23T19:21:25.213Z,2.27
2018-11-23T19:23:53.958Z,2.22
2018-11-23T19:26:24.274Z,2.29
2018-11-23T19:29:26.116Z,2.20
2018-11-23T19:31:58.572Z,2.23
2018-11-23T19:34:29.005Z,2.22
2018-11-23T19:36:57.401Z,2.30
2018-11-23T19:45:43.568Z,2.34
2018-11-23T19:48:36.441Z,2.32
2018-11-23T19:51:18.384Z,2.24
2018-11-23T19:53:46.800Z,2.24
2018-11-23T19:56:15.029Z,2.15
2018-11-23T19:58:43.250Z,2.34
2018-11-23T20:01:12.720Z,2.38
2018-11-23T20:03:40.926Z,2.42
2018-11-23T20:06:09.149Z,2.41
2018-11-23T20:08:37.414Z,2.44
2018-11-23T20:11:05.627Z,2.41
2018-11-23T20:13:33.967Z,2.39
2018-11-23T20:16:02.256Z,2.22
2018-11-23T20:18:30.465Z,2.27
2018-11-23T20:20:58.657Z,2.28
2018-11-23T20:23:26.856Z,2.24
2018-11-23T20:25:55.096Z,2.35
2018-11-23T20:28:23.486Z,2.31
2018-11-23T20:30:58.427Z,2.28
2018-11-23T20:33:26.805Z,2.39
2018-11-23T20:35:55.222Z,2.42
2018-11-23T20:38:23.465Z,2.40
2018-11-23T20:40:51.759Z,2.25
2018-11-23T20:43:22.091Z,2.38
2018-11-23T20:45:50.447Z,2.39
2018-11-23T20:48:18.830Z,1.96
2018-11-23T20:50:47.352Z,2.38
2018-11-23T20:53:15.851Z,2.41
2018-11-23T20:55:44.192Z,2.44
2018-11-23T20:58:12.402Z,2.36
2018-11-23T21:00:40.628Z,2.38
2018-11-23T21:03:08.947Z,2.42
2018-11-23T21:05:37.239Z,2.42
2018-11-23T21:08:05.541Z,2.40
2018-11-23T21:10:41.696Z,2.38
2018-11-23T21:14:18.860Z,2.28
2018-11-23T21:16:47.431Z,2.30
2018-11-23T21:19:15.688Z,2.38
2018-11-23T21:21:43.884Z,2.35
2018-11-23T21:24:12.215Z,2.41
2018-11-23T21:26:40.639Z,2.35
2018-11-23T21:29:09.631Z,2.43
2018-11-23T21:31:37.979Z,2.48
2018-11-23T21:36:47.220Z,2.35
2018-11-23T21:39:20.183Z,2.46
2018-11-23T21:41:49.430Z,2.30
2018-11-23T21:44:18.220Z,2.37
2018-11-23T21:46:47.281Z,2.40
2018-11-23T21:49:15.806Z,2.43
2018-11-23T21:51:44.603Z,2.46
2018-11-23T21:54:15.653Z,2.45
2018-11-23T21:56:44.924Z,2.47
2018-11-23T21:59:13.557Z,2.55
2018-11-23T22:01:41.824Z,2.54
2018-11-23T22:04:10.344Z,2.47
2018-11-23T22:06:43.466Z,2.54
2018-11-23T22:09:12.158Z,2.54
2018-11-23T22:11:40.884Z,2.53
2018-11-23T22:14:09.169Z,2.58
2018-11-23T22:16:45.060Z,2.51
2018-11-23T22:22:10.932Z,2.52
2018-11-23T22:24:41.385Z,2.59
2018-11-23T22:27:13.828Z,2.60
2018-11-23T22:30:26.934Z,2.58
2018-11-23T22:36:10.492Z,2.53
2018-11-23T22:38:45.738Z,2.10
2018-11-23T22:41:28.089Z,2.50
2018-11-23T22:43:58.404Z,2.55
2018-11-23T22:46:37.662Z,2.52
2018-11-23T22:49:06.790Z,2.55
2018-11-23T22:51:45.658Z,2.51
2018-11-23T22:54:18.320Z,2.50
2018-11-23T22:56:46.642Z,2.54
2018-11-23T22:59:14.986Z,2.56
2018-11-23T23:01:43.175Z,2.63
2018-11-23T23:04:11.387Z,2.62
2018-11-23T23:06:42.566Z,2.46
2018-11-23T23:09:10.868Z,2.34
2018-11-23T23:11:39.064Z,2.50
2018-11-23T23:14:07.234Z,2.59
2018-11-23T23:16:35.552Z,2.54
2018-11-23T23:19:03.743Z,2.65
2018-11-23T23:21:31.931Z,2.57
2018-11-23T23:24:00.123Z,2.44
2018-11-23T23:26:28.402Z,2.51
2018-11-23T23:28:56.572Z,2.54
2018-11-23T23:31:24.901Z,2.44
2018-11-23T23:33:53.074Z,2.28
2018-11-23T23:36:21.285Z,2.23
2018-11-23T23:38:49.475Z,2.28
2018-11-23T23:41:17.716Z,2.19
2018-11-23T23:43:45.953Z,2.43
2018-11-23T23:46:14.209Z,2.42
2018-11-23T23:48:42.430Z,2.39
2018-11-23T23:51:10.728Z,2.34
2018-11-23T23:53:39.066Z,2.24
2018-11-23T23:56:07.248Z,2.39
2018-11-23T23:58:51.873Z,1.71
